Time;durP1;ratioP1;P1;durP2;ratioP2;P2;SDS_P1;SDS_P2;PMS_P1;PMS_P2;Temp;Humidity;BMP_temperature;BMP_pressure;BME280_temperature;BME280_humidity;BME280_pressure;Samples;Min_cycle;Max_cycle;Signal;HPM_P1;HPM_P2
2022/10/26 00:00:41;;;;;;;9.75;3.20;;;12.00;99.90;;;;;;5045157;28;21028;-61
2022/10/26 00:03:06;;;;;;;9.18;2.50;;;11.90;99.90;;;;;;5045678;28;20029;-61
2022/10/26 00:05:33;;;;;;;20.25;3.38;;;11.90;99.90;;;;;;5041293;28;20443;-62
2022/10/26 00:07:59;;;;;;;6.50;2.17;;;12.00;99.90;;;;;;5048530;28;20486;-61
2022/10/26 00:10:25;;;;;;;18.67;2.30;;;12.00;99.90;;;;;;5043844;28;20094;-61
2022/10/26 00:12:51;;;;;;;26.63;5.10;;;12.00;99.90;;;;;;5043564;28;20438;-60
2022/10/26 00:15:20;;;;;;;22.98;2.83;;;12.00;99.90;;;;;;5045365;28;20033;-59
2022/10/26 00:17:47;;;;;;;8.70;2.38;;;12.10;99.90;;;;;;5043219;28;20033;-62
2022/10/26 00:20:13;;;;;;;8.07;2.00;;;12.10;99.90;;;;;;5044484;28;20388;-61
2022/10/26 00:22:38;;;;;;;13.98;2.45;;;12.10;99.90;;;;;;5044605;28;20021;-62
2022/10/26 00:25:05;;;;;;;6.07;1.90;;;12.10;99.90;;;;;;5044265;28;20112;-62
2022/10/26 00:27:33;;;;;;;6.03;2.50;;;12.10;99.90;;;;;;5044163;28;20033;-62
2022/10/26 00:29:59;;;;;;;17.05;2.33;;;12.10;99.90;;;;;;5043809;28;20033;-61
2022/10/26 00:32:25;;;;;;;10.13;2.03;;;12.10;99.90;;;;;;5047115;28;20541;-61
2022/10/26 00:34:50;;;;;;;16.48;2.05;;;12.10;99.90;;;;;;5047891;28;20064;-59
2022/10/26 00:37:16;;;;;;;10.18;2.35;;;12.10;99.90;;;;;;5043219;28;20029;-59
2022/10/26 00:39:41;;;;;;;5.45;2.25;;;12.20;99.90;;;;;;5042821;28;20079;-60
2022/10/26 00:42:13;;;;;;;8.50;2.05;;;12.10;99.90;;;;;;5046570;28;20032;-60
2022/10/26 00:44:47;;;;;;;23.65;2.72;;;12.10;99.90;;;;;;5045047;28;20469;-61
2022/10/26 00:47:19;;;;;;;5.72;1.65;;;12.20;99.90;;;;;;5045998;28;20037;-60
2022/10/26 00:49:47;;;;;;;12.82;2.05;;;12.20;99.90;;;;;;5045164;28;20506;-61
2022/10/26 00:52:15;;;;;;;3.97;1.98;;;12.20;99.90;;;;;;5046703;28;20316;-59
2022/10/26 00:54:41;;;;;;;8.85;2.17;;;12.20;99.90;;;;;;5042214;28;20048;-60
2022/10/26 00:57:07;;;;;;;7.60;1.88;;;12.20;99.90;;;;;;5046286;28;20075;-60
2022/10/26 00:59:32;;;;;;;7.57;2.10;;;12.20;99.90;;;;;;5045339;28;20124;-62
2022/10/26 01:01:58;;;;;;;5.57;2.05;;;12.20;99.90;;;;;;5046492;28;20021;-61
2022/10/26 01:04:23;;;;;;;3.00;2.05;;;12.20;99.90;;;;;;5047594;28;20040;-62
2022/10/26 01:06:51;;;;;;;17.13;2.80;;;12.20;99.90;;;;;;5044772;28;20029;-62
2022/10/26 01:09:17;;;;;;;30.60;2.25;;;12.30;99.90;;;;;;5045240;28;20048;-63
2022/10/26 01:11:43;;;;;;;8.25;1.70;;;12.30;99.90;;;;;;5046315;28;20070;-62
2022/10/26 01:14:11;;;;;;;31.08;2.85;;;12.30;99.90;;;;;;5045998;28;20108;-61
2022/10/26 01:17:05;;;;;;;15.70;2.10;;;12.30;99.90;;;;;;5044683;28;20029;-55
2022/10/26 01:20:05;;;;;;;10.23;3.05;;;12.40;99.90;;;;;;4994343;28;20186;-61
2022/10/26 01:22:45;;;;;;;7.20;1.77;;;12.40;99.90;;;;;;5043335;28;20033;-62
2022/10/26 01:25:40;;;;;;;9.93;1.70;;;12.40;99.90;;;;;;5044592;28;20111;-60
2022/10/26 01:28:18;;;;;;;3.95;1.60;;;12.40;99.90;;;;;;5039001;28;20021;-62
2022/10/26 01:30:45;;;;;;;4.32;1.80;;;12.40;99.90;;;;;;5039516;28;20815;-58
2022/10/26 01:33:32;;;;;;;7.05;1.83;;;12.40;99.90;;;;;;5044909;28;20029;-60
2022/10/26 01:36:11;;;;;;;5.25;1.67;;;12.40;99.90;;;;;;5044783;28;20025;-58
2022/10/26 01:38:48;;;;;;;5.78;1.67;;;12.40;99.90;;;;;;5050319;28;20490;-61
2022/10/26 01:41:39;;;;;;;18.63;2.65;;;12.40;99.90;;;;;;5047475;28;20443;-61
2022/10/26 01:44:08;;;;;;;14.98;2.13;;;12.40;99.90;;;;;;5049475;28;20098;-61
2022/10/26 01:46:38;;;;;;;20.27;1.98;;;12.40;99.90;;;;;;5048595;28;20032;-61
2022/10/26 01:49:09;;;;;;;13.32;2.10;;;12.40;99.90;;;;;;5052518;28;20033;-60
2022/10/26 01:51:35;;;;;;;23.15;3.47;;;12.40;99.90;;;;;;5047244;28;20024;-61
2022/10/26 01:54:00;;;;;;;8.85;2.78;;;12.40;99.90;;;;;;5049013;28;20029;-62
2022/10/26 01:56:30;;;;;;;19.17;2.60;;;12.50;99.90;;;;;;5047062;28;20384;-61
2022/10/26 01:59:14;;;;;;;6.93;1.40;;;12.50;99.90;;;;;;5050781;28;20029;-60
2022/10/26 02:01:51;;;;;;;4.45;1.50;;;12.50;99.90;;;;;;5046427;28;20025;-61
2022/10/26 02:04:27;;;;;;;7.10;1.65;;;12.50;99.90;;;;;;5047477;28;20060;-61
2022/10/26 02:07:03;;;;;;;10.90;2.05;;;12.50;99.90;;;;;;5046600;28;20025;-61
2022/10/26 02:09:44;;;;;;;11.27;1.63;;;12.50;99.90;;;;;;5048359;28;20063;-61
2022/10/26 02:12:26;;;;;;;8.73;1.90;;;12.60;99.90;;;;;;5052569;28;20141;-62
2022/10/26 02:15:16;;;;;;;27.60;2.78;;;12.60;99.90;;;;;;5050073;28;20407;-61
2022/10/26 02:17:50;;;;;;;7.63;1.90;;;12.60;99.90;;;;;;5051634;28;20040;-61
2022/10/26 02:20:27;;;;;;;26.70;2.65;;;12.60;99.90;;;;;;5047217;28;20029;-58
2022/10/26 02:22:54;;;;;;;17.92;2.10;;;12.60;99.90;;;;;;5052772;28;20060;-62
2022/10/26 02:25:26;;;;;;;12.60;1.98;;;12.60;99.90;;;;;;5046139;28;20025;-62
2022/10/26 02:27:58;;;;;;;8.73;2.08;;;12.60;99.90;;;;;;5047922;28;20025;-60
2022/10/26 02:30:24;;;;;;;6.05;1.88;;;12.70;99.90;;;;;;5045237;28;21200;-61
2022/10/26 02:32:53;;;;;;;3.90;1.83;;;12.60;99.90;;;;;;5047092;28;20086;-60
2022/10/26 02:35:24;;;;;;;12.23;1.77;;;12.70;99.90;;;;;;5045683;28;20396;-60
2022/10/26 02:37:52;;;;;;;9.77;1.92;;;12.70;99.90;;;;;;5047906;28;20029;-59
2022/10/26 02:40:22;;;;;;;8.25;2.08;;;12.70;99.90;;;;;;5045000;28;20047;-60
2022/10/26 02:42:50;;;;;;;3.60;1.50;;;12.80;99.90;;;;;;5044999;28;20078;-59
2022/10/26 02:45:22;;;;;;;8.95;1.67;;;12.70;99.90;;;;;;5045698;28;20014;-61
2022/10/26 02:47:48;;;;;;;5.35;1.88;;;12.80;99.90;;;;;;5044181;28;20482;-61
2022/10/26 02:50:15;;;;;;;21.05;2.25;;;12.80;99.90;;;;;;5045240;28;20102;-58
2022/10/26 02:52:50;;;;;;;12.52;1.73;;;12.80;99.90;;;;;;5046118;28;20098;-61
2022/10/26 02:55:29;;;;;;;6.35;2.00;;;12.80;99.90;;;;;;5048545;28;20032;-61
2022/10/26 02:57:59;;;;;;;15.80;1.77;;;12.90;99.90;;;;;;5046578;28;20402;-60
2022/10/26 03:00:25;;;;;;;18.92;1.60;;;12.90;99.90;;;;;;5042782;28;20033;-62
2022/10/26 03:03:02;;;;;;;5.10;1.65;;;12.90;99.90;;;;;;5046386;28;20032;-61
2022/10/26 03:05:35;;;;;;;5.30;1.98;;;12.90;99.90;;;;;;5049781;28;20021;-58
2022/10/26 03:08:01;;;;;;;18.90;2.85;;;12.90;99.90;;;;;;5052301;28;20320;-60
2022/10/26 03:10:26;;;;;;;18.95;1.98;;;13.00;99.90;;;;;;5045659;28;20040;-59
2022/10/26 03:12:52;;;;;;;10.05;1.92;;;13.00;99.90;;;;;;5046924;28;20040;-59
2022/10/26 03:15:17;;;;;;;4.80;3.10;;;13.00;99.90;;;;;;5047528;28;20465;-61
2022/10/26 03:17:43;;;;;;;2.42;1.52;;;13.00;99.90;;;;;;5049957;28;20036;-60
2022/10/26 03:20:09;;;;;;;13.60;1.60;;;13.10;99.90;;;;;;5045288;28;20087;-61
2022/10/26 03:22:35;;;;;;;4.25;1.58;;;13.10;99.90;;;;;;5047656;28;20036;-60
2022/10/26 03:25:01;;;;;;;6.68;1.98;;;13.10;99.90;;;;;;5033063;22;20137;-67
2022/10/26 03:27:26;;;;;;;12.73;1.75;;;13.10;99.90;;;;;;5007446;28;20030;-67
2022/10/26 03:29:52;;;;;;;7.82;1.92;;;13.10;99.90;;;;;;5006848;28;20105;-66
2022/10/26 03:32:18;;;;;;;13.00;1.92;;;13.10;99.90;;;;;;5009700;28;20033;-67
2022/10/26 03:34:44;;;;;;;6.70;2.30;;;13.10;99.90;;;;;;5008091;28;20030;-66
2022/10/26 03:37:10;;;;;;;5.30;1.40;;;13.20;99.90;;;;;;5006921;28;20037;-67
2022/10/26 03:39:35;;;;;;;8.68;1.80;;;13.20;99.90;;;;;;5007904;28;20044;-67
2022/10/26 03:42:01;;;;;;;4.75;1.70;;;13.20;99.90;;;;;;5005415;28;20495;-66
2022/10/26 03:44:26;;;;;;;13.07;2.15;;;13.20;99.90;;;;;;5008565;28;20651;-67
2022/10/26 03:46:52;;;;;;;8.13;1.25;;;13.30;99.90;;;;;;5002520;28;20310;-66
2022/10/26 03:49:17;;;;;;;10.27;1.90;;;13.30;99.90;;;;;;5012922;28;20108;-66
2022/10/26 03:51:43;;;;;;;10.60;1.75;;;13.30;99.90;;;;;;5011284;28;20034;-66
2022/10/26 03:54:08;;;;;;;13.40;1.85;;;13.30;99.90;;;;;;5006558;28;20033;-66
2022/10/26 03:56:34;;;;;;;9.30;1.58;;;13.30;99.90;;;;;;5005102;28;20027;-66
2022/10/26 03:58:59;;;;;;;9.32;2.40;;;13.40;99.90;;;;;;5000928;28;20860;-65
2022/10/26 04:01:25;;;;;;;9.10;1.48;;;13.40;99.90;;;;;;5005513;28;20172;-67
2022/10/26 04:03:50;;;;;;;9.73;2.10;;;13.40;99.90;;;;;;5007959;28;20038;-67
2022/10/26 04:06:16;;;;;;;9.05;2.35;;;13.40;99.90;;;;;;5001917;28;20029;-65
2022/10/26 04:08:41;;;;;;;4.93;1.40;;;13.40;99.90;;;;;;5009064;28;20392;-68
2022/10/26 04:11:07;;;;;;;3.30;1.30;;;13.40;99.90;;;;;;5005278;28;20416;-66
2022/10/26 04:13:32;;;;;;;5.78;1.50;;;13.50;99.90;;;;;;5003971;28;20030;-66
2022/10/26 04:15:58;;;;;;;5.78;1.63;;;13.50;99.90;;;;;;5005816;28;20034;-66
2022/10/26 04:18:23;;;;;;;5.18;1.42;;;13.50;99.90;;;;;;4999219;28;20052;-66
2022/10/26 04:20:49;;;;;;;7.82;1.88;;;13.50;99.90;;;;;;5005547;28;20038;-66
2022/10/26 04:23:16;;;;;;;8.43;1.80;;;13.50;99.90;;;;;;5003874;28;20025;-66
2022/10/26 04:25:43;;;;;;;14.80;2.03;;;13.50;99.90;;;;;;5015003;28;20030;-66
2022/10/26 04:28:09;;;;;;;7.75;2.20;;;13.50;99.90;;;;;;5004218;28;20030;-66
2022/10/26 04:30:36;;;;;;;13.93;1.70;;;13.50;99.90;;;;;;5006496;28;20492;-66
2022/10/26 04:33:02;;;;;;;5.57;2.33;;;13.50;99.90;;;;;;5009159;28;20112;-67
2022/10/26 04:35:28;;;;;;;6.95;1.40;;;13.50;99.90;;;;;;5008444;28;20022;-66
2022/10/26 04:38:01;;;;;;;19.92;2.05;;;13.60;99.90;;;;;;5001582;28;20030;-66
2022/10/26 04:40:28;;;;;;;13.68;1.58;;;13.60;99.90;;;;;;5007229;28;20026;-66
2022/10/26 04:42:54;;;;;;;4.43;1.42;;;13.70;99.90;;;;;;5012556;28;20022;-65
2022/10/26 04:45:20;;;;;;;6.00;1.85;;;13.80;99.90;;;;;;5011560;28;20040;-66
2022/10/26 04:47:45;;;;;;;8.93;2.58;;;13.90;99.90;;;;;;5001411;28;20023;-66
2022/10/26 04:50:12;;;;;;;13.77;2.03;;;13.90;99.90;;;;;;5005614;28;20033;-66
2022/10/26 04:52:38;;;;;;;9.02;1.50;;;13.90;99.90;;;;;;5007737;28;20081;-66
2022/10/26 04:55:05;;;;;;;9.27;1.63;;;14.00;99.90;;;;;;5013098;28;20049;-68
2022/10/26 04:57:34;;;;;;;6.95;1.67;;;14.10;99.90;;;;;;5006194;28;20065;-66
2022/10/26 05:00:00;;;;;;;8.68;1.55;;;14.10;99.90;;;;;;5004162;28;20030;-67
2022/10/26 05:02:27;;;;;;;7.20;1.50;;;14.10;99.90;;;;;;4999816;28;20034;-68
2022/10/26 05:04:52;;;;;;;4.05;1.08;;;14.20;99.90;;;;;;5001956;28;20065;-67
2022/10/26 05:07:18;;;;;;;5.57;1.60;;;14.20;99.90;;;;;;5004159;28;20480;-67
2022/10/26 05:09:43;;;;;;;3.10;1.35;;;14.30;99.90;;;;;;5010836;28;20065;-68
2022/10/26 05:12:09;;;;;;;11.27;1.70;;;14.30;99.90;;;;;;5012972;28;20054;-68
2022/10/26 05:14:35;;;;;;;9.45;1.50;;;14.30;99.90;;;;;;5005865;28;20032;-66
2022/10/26 05:17:00;;;;;;;7.90;2.38;;;14.20;99.90;;;;;;5006588;28;20061;-66
2022/10/26 05:19:26;;;;;;;14.82;1.50;;;14.30;99.90;;;;;;5008290;28;20077;-66
2022/10/26 05:21:52;;;;;;;8.80;1.75;;;14.30;99.90;;;;;;5017772;28;20100;-67
2022/10/26 05:24:18;;;;;;;7.15;1.80;;;14.30;99.90;;;;;;5005950;28;20017;-65
2022/10/26 05:26:43;;;;;;;13.55;1.40;;;14.30;99.90;;;;;;5008212;28;20048;-67
2022/10/26 05:29:09;;;;;;;13.32;1.27;;;14.30;99.90;;;;;;5008800;28;20049;-66
2022/10/26 05:31:35;;;;;;;4.95;1.75;;;14.30;99.90;;;;;;5013685;28;20391;-66
2022/10/26 05:34:00;;;;;;;8.48;2.10;;;14.20;99.90;;;;;;5010695;28;20104;-66
2022/10/26 05:36:26;;;;;;;9.98;1.63;;;14.20;99.90;;;;;;5012068;28;20018;-66
2022/10/26 05:38:51;;;;;;;12.25;1.95;;;14.20;99.90;;;;;;5012288;28;20053;-66
2022/10/26 05:41:17;;;;;;;12.38;2.28;;;14.20;99.90;;;;;;5009222;28;20443;-67
2022/10/26 05:43:42;;;;;;;8.98;2.03;;;14.20;99.90;;;;;;5007065;28;20038;-66
2022/10/26 05:46:08;;;;;;;4.80;1.50;;;14.20;99.90;;;;;;5010764;28;20109;-65
2022/10/26 05:48:33;;;;;;;13.07;1.75;;;14.20;99.90;;;;;;5010432;28;20034;-66
2022/10/26 05:51:00;;;;;;;10.40;1.65;;;14.30;99.90;;;;;;5011030;28;20052;-67
2022/10/26 05:53:26;;;;;;;5.03;1.35;;;14.30;99.90;;;;;;5010024;28;20030;-67
2022/10/26 05:55:52;;;;;;;8.88;1.45;;;14.20;99.90;;;;;;5014436;28;20511;-68
2022/10/26 05:58:17;;;;;;;12.57;1.60;;;14.20;99.90;;;;;;5010539;28;20632;-65
2022/10/26 06:01:12;;;;;;;7.32;2.10;;;14.30;99.90;;;;;;5005200;28;20041;-66
2022/10/26 06:03:54;;;;;;;9.95;1.60;;;14.30;99.90;;;;;;5000646;28;20053;-67
2022/10/26 06:06:21;;;;;;;8.88;2.03;;;14.30;99.90;;;;;;5004244;28;20804;-68
2022/10/26 06:08:47;;;;;;;4.70;2.50;;;14.40;99.90;;;;;;5005794;28;20080;-67
2022/10/26 06:11:13;;;;;;;14.50;2.40;;;14.40;99.90;;;;;;5010986;28;20025;-67
2022/10/26 06:13:38;;;;;;;11.15;2.05;;;14.40;99.90;;;;;;5011594;28;20442;-69
2022/10/26 06:16:19;;;;;;;6.25;1.92;;;14.40;99.90;;;;;;5005840;28;20030;-66
2022/10/26 06:19:09;;;;;;;6.82;1.98;;;14.40;99.90;;;;;;5006820;28;20034;-66
2022/10/26 06:22:08;;;;;;;6.55;1.80;;;14.40;99.90;;;;;;5009722;28;20089;-68
2022/10/26 06:25:05;;;;;;;8.50;1.92;;;14.30;99.90;;;;;;5006455;28;20037;-68
2022/10/26 06:27:49;;;;;;;21.40;1.88;;;14.30;99.90;;;;;;5011530;28;20025;-69
2022/10/26 06:30:14;;;;;;;10.52;1.67;;;14.20;99.90;;;;;;5006077;28;20116;-69
2022/10/26 06:32:44;;;;;;;11.85;2.60;;;14.20;99.90;;;;;;5010072;28;20551;-68
2022/10/26 06:35:35;;;;;;;7.35;2.05;;;14.20;99.90;;;;;;5009655;28;20555;-69
2022/10/26 06:38:06;;;;;;;15.07;2.20;;;14.20;99.90;;;;;;5008401;28;20032;-68
2022/10/26 06:40:36;;;;;;;11.88;2.00;;;14.20;99.90;;;;;;5010888;28;20369;-68
2022/10/26 06:43:02;;;;;;;9.32;1.92;;;14.20;99.90;;;;;;5011579;28;20022;-69
2022/10/26 06:45:28;;;;;;;14.55;2.38;;;14.20;99.90;;;;;;5009175;28;20054;-69
2022/10/26 06:48:06;;;;;;;16.90;2.60;;;14.20;99.90;;;;;;5010093;28;20049;-67
2022/10/26 06:50:41;;;;;;;19.30;2.42;;;14.20;99.90;;;;;;5009880;28;20065;-68
2022/10/26 06:53:24;;;;;;;13.40;1.60;;;14.10;99.90;;;;;;5007516;28;20030;-68
2022/10/26 06:55:51;;;;;;;9.93;2.28;;;14.10;99.90;;;;;;4999050;28;20107;-68
2022/10/26 06:58:22;;;;;;;7.43;2.28;;;14.00;99.90;;;;;;5010244;28;20029;-68
2022/10/26 07:00:49;;;;;;;27.20;2.65;;;14.00;99.90;;;;;;5011629;28;20029;-69
2022/10/26 07:03:15;;;;;;;17.75;2.85;;;14.00;99.90;;;;;;5011875;28;20100;-67
2022/10/26 07:05:42;;;;;;;7.43;2.50;;;14.00;99.90;;;;;;5011962;28;20073;-69
2022/10/26 07:08:08;;;;;;;9.35;3.15;;;14.00;99.90;;;;;;5010734;28;20104;-69
2022/10/26 07:10:38;;;;;;;10.40;2.63;;;13.90;99.90;;;;;;5011045;28;20034;-69
2022/10/26 07:13:09;;;;;;;8.90;3.08;;;13.90;99.90;;;;;;5011155;28;20395;-69
2022/10/26 07:15:36;;;;;;;7.38;3.22;;;14.00;99.90;;;;;;5008417;28;20037;-69
2022/10/26 07:18:07;;;;;;;11.57;3.03;;;14.00;99.90;;;;;;5008951;28;20572;-68
2022/10/26 07:20:38;;;;;;;19.85;3.40;;;14.10;99.90;;;;;;5004089;28;20034;-69
2022/10/26 07:23:06;;;;;;;10.40;3.53;;;14.10;99.90;;;;;;5009304;28;20057;-68
2022/10/26 07:25:33;;;;;;;8.05;3.15;;;14.10;99.90;;;;;;5005200;28;20057;-68
2022/10/26 07:27:59;;;;;;;12.48;2.65;;;14.10;99.90;;;;;;5008845;28;20029;-67
2022/10/26 07:30:26;;;;;;;16.58;3.35;;;14.10;99.90;;;;;;5009712;28;20179;-70
2022/10/26 07:33:02;;;;;;;22.75;3.85;;;14.20;99.90;;;;;;5009922;28;20625;-69
2022/10/26 07:35:27;;;;;;;19.33;4.15;;;14.20;99.90;;;;;;5008254;28;20465;-69
2022/10/26 07:37:59;;;;;;;12.40;3.25;;;14.20;99.90;;;;;;5009700;28;20095;-67
2022/10/26 07:40:26;;;;;;;10.65;3.67;;;14.30;99.90;;;;;;5006019;28;20057;-69
2022/10/26 07:42:51;;;;;;;17.55;3.78;;;14.30;99.90;;;;;;5005220;28;20018;-68
2022/10/26 07:45:18;;;;;;;19.20;3.38;;;14.30;99.90;;;;;;5008250;28;20068;-68
2022/10/26 07:47:45;;;;;;;11.93;2.53;;;14.30;99.90;;;;;;5006865;28;20080;-68
2022/10/26 07:50:11;;;;;;;15.10;3.60;;;14.40;99.90;;;;;;5006245;28;20022;-68
2022/10/26 07:52:37;;;;;;;12.18;2.70;;;14.40;99.90;;;;;;5009177;28;20038;-68
2022/10/26 07:55:04;;;;;;;9.45;2.90;;;14.30;99.90;;;;;;5005015;28;20068;-68
2022/10/26 07:57:29;;;;;;;18.55;3.00;;;14.30;99.90;;;;;;5008954;28;20567;-67
2022/10/26 07:59:55;;;;;;;13.45;2.65;;;14.20;99.90;;;;;;5007154;28;20117;-67
2022/10/26 08:02:20;;;;;;;11.80;2.55;;;14.20;99.90;;;;;;5009763;28;20032;-68
2022/10/26 08:04:46;;;;;;;5.93;2.83;;;14.20;99.90;;;;;;5001050;28;20026;-54
2022/10/26 08:07:11;;;;;;;7.40;2.80;;;14.20;99.90;;;;;;5005688;28;20068;-55
2022/10/26 08:09:37;;;;;;;10.60;2.80;;;14.20;99.90;;;;;;5005803;28;20037;-56
2022/10/26 08:12:02;;;;;;;13.82;3.08;;;14.30;99.90;;;;;;5005512;28;20057;-55
2022/10/26 08:14:28;;;;;;;14.15;2.88;;;14.30;99.90;;;;;;5004567;28;20535;-55
2022/10/26 08:16:53;;;;;;;12.43;2.78;;;14.40;99.90;;;;;;5005680;28;20641;-53
2022/10/26 08:19:19;;;;;;;13.20;3.00;;;14.40;99.90;;;;;;5004964;28;20069;-57
2022/10/26 08:21:45;;;;;;;18.23;2.92;;;14.50;99.90;;;;;;5005511;28;20057;-58
2022/10/26 08:24:10;;;;;;;19.77;2.72;;;14.60;99.90;;;;;;5005857;28;20049;-58
2022/10/26 08:26:36;;;;;;;13.82;3.05;;;14.70;99.90;;;;;;5003256;28;20029;-56
2022/10/26 08:29:01;;;;;;;7.60;2.30;;;14.80;99.90;;;;;;5003997;28;20366;-56
2022/10/26 08:31:27;;;;;;;6.20;2.22;;;14.90;99.90;;;;;;5004313;28;20091;-59
2022/10/26 08:33:52;;;;;;;11.48;3.03;;;14.90;99.90;;;;;;5002565;28;20104;-59
2022/10/26 08:36:24;;;;;;;14.02;2.65;;;15.00;99.90;;;;;;5005063;28;20029;-59
2022/10/26 08:38:51;;;;;;;16.27;2.40;;;15.10;99.90;;;;;;4999741;28;21143;-56
2022/10/26 08:41:19;;;;;;;8.82;2.63;;;15.30;99.90;;;;;;5005538;28;20480;-58
2022/10/26 08:44:13;;;;;;;13.32;3.00;;;15.50;99.90;;;;;;5005324;28;20484;-55
2022/10/26 08:46:44;;;;;;;4.57;1.45;;;15.80;99.90;;;;;;4991986;28;20034;-57
2022/10/26 08:49:27;;;;;;;13.20;2.05;;;16.00;99.90;;;;;;5008639;28;20026;-57
2022/10/26 08:51:57;;;;;;;18.92;2.20;;;16.10;99.90;;;;;;5005845;28;20034;-61
2022/10/26 08:54:42;;;;;;;12.23;1.98;;;16.10;99.90;;;;;;5007733;28;20044;-59
2022/10/26 08:57:17;;;;;;;6.25;1.63;;;16.10;99.90;;;;;;5004862;28;20030;-57
2022/10/26 08:59:50;;;;;;;9.05;1.83;;;16.10;99.90;;;;;;5001651;28;20038;-58
2022/10/26 09:02:17;;;;;;;2.88;1.70;;;16.10;99.90;;;;;;5005293;28;20395;-57
2022/10/26 09:04:43;;;;;;;9.48;1.48;;;16.20;99.90;;;;;;5005828;28;20129;-58
2022/10/26 09:07:24;;;;;;;7.72;2.15;;;16.20;99.90;;;;;;4996591;28;20045;-57
2022/10/26 09:10:15;;;;;;;9.25;2.10;;;16.20;99.90;;;;;;5000402;28;20418;-55
2022/10/26 09:13:04;;;;;;;9.35;2.17;;;16.20;99.90;;;;;;4996795;28;20062;-59
2022/10/26 09:15:56;;;;;;;13.30;2.65;;;16.20;99.90;;;;;;4993746;28;20034;-58
2022/10/26 09:18:46;;;;;;;5.28;1.55;;;16.10;99.90;;;;;;4996486;28;20120;-58
2022/10/26 09:21:30;;;;;;;11.63;2.50;;;16.10;99.90;;;;;;5002785;28;20037;-58
2022/10/26 09:24:00;;;;;;;8.82;2.63;;;16.10;99.90;;;;;;5000996;28;20042;-52
2022/10/26 09:26:42;;;;;;;7.75;2.25;;;16.20;99.90;;;;;;4998374;28;20097;-55
2022/10/26 09:29:12;;;;;;;6.78;1.85;;;16.30;99.90;;;;;;4993097;28;20830;-55
2022/10/26 09:31:45;;;;;;;10.10;1.92;;;16.40;99.90;;;;;;5002395;28;20025;-55
2022/10/26 09:34:24;;;;;;;10.32;2.20;;;16.60;99.90;;;;;;5001951;28;20034;-56
2022/10/26 09:36:56;;;;;;;8.13;1.67;;;16.70;99.90;;;;;;4997376;28;20046;-59
2022/10/26 09:39:38;;;;;;;14.37;2.10;;;16.90;99.90;;;;;;5005074;28;20058;-57
2022/10/26 09:42:28;;;;;;;11.85;1.98;;;16.90;99.90;;;;;;4998967;28;20034;-58
2022/10/26 09:45:08;;;;;;;23.80;2.20;;;17.00;99.90;;;;;;5000355;28;20049;-58
2022/10/26 09:47:38;;;;;;;16.23;1.80;;;17.10;99.90;;;;;;5000670;28;20030;-56
2022/10/26 09:50:30;;;;;;;8.07;2.60;;;17.10;99.90;;;;;;4997169;28;20080;-56
2022/10/26 09:52:56;;;;;;;8.27;1.77;;;17.20;99.90;;;;;;4999805;28;20658;-53
2022/10/26 09:55:22;;;;;;;4.20;1.77;;;17.30;99.90;;;;;;4999253;28;20025;-55
2022/10/26 09:57:52;;;;;;;7.38;2.10;;;17.40;99.90;;;;;;5000042;28;20026;-59
2022/10/26 10:00:20;;;;;;;7.72;2.10;;;17.50;99.90;;;;;;4995628;28;20038;-60
2022/10/26 10:02:58;;;;;;;6.72;1.83;;;17.60;99.90;;;;;;5000813;28;20030;-57
2022/10/26 10:05:26;;;;;;;9.60;2.53;;;17.70;99.90;;;;;;4995114;28;20046;-56
2022/10/26 10:08:09;;;;;;;8.52;2.05;;;17.70;99.90;;;;;;5000746;28;20030;-55
2022/10/26 10:10:36;;;;;;;6.55;2.00;;;17.90;99.90;;;;;;4995365;28;20067;-56
2022/10/26 10:13:16;;;;;;;8.98;1.80;;;18.00;99.90;;;;;;5001946;28;20061;-55
2022/10/26 10:15:56;;;;;;;11.25;2.22;;;18.00;99.90;;;;;;4993188;28;20117;-52
2022/10/26 10:18:22;;;;;;;7.38;1.67;;;18.20;99.90;;;;;;4996866;28;20048;-56
2022/10/26 10:20:53;;;;;;;10.00;2.05;;;18.30;99.90;;;;;;4995649;28;20026;-55
2022/10/26 10:23:31;;;;;;;5.30;1.65;;;18.40;99.90;;;;;;5000937;28;20034;-57
2022/10/26 10:26:09;;;;;;;5.70;1.52;;;18.40;99.90;;;;;;4998745;28;20064;-60
2022/10/26 10:28:35;;;;;;;9.00;1.85;;;18.60;99.90;;;;;;5003448;28;20022;-57
2022/10/26 10:31:17;;;;;;;3.63;1.42;;;18.60;99.90;;;;;;5004719;28;20026;-58
2022/10/26 10:33:44;;;;;;;11.95;2.10;;;18.70;99.90;;;;;;4997757;28;20035;-58
2022/10/26 10:36:16;;;;;;;6.95;1.83;;;18.80;99.90;;;;;;5003279;28;20034;-56
2022/10/26 10:38:44;;;;;;;8.77;2.00;;;18.90;99.90;;;;;;5001733;28;20041;-56
2022/10/26 10:41:26;;;;;;;10.07;1.85;;;18.90;99.90;;;;;;5001209;28;20105;-58
2022/10/26 10:44:18;;;;;;;11.80;1.85;;;19.10;99.90;;;;;;4991424;28;20493;-57
2022/10/26 10:46:44;;;;;;;7.95;2.05;;;19.20;99.90;;;;;;4994532;28;20066;-59
2022/10/26 10:49:21;;;;;;;10.23;2.03;;;19.30;99.90;;;;;;4991561;28;20019;-56
2022/10/26 10:51:47;;;;;;;10.25;1.90;;;19.50;99.90;;;;;;5001267;28;20037;-58
2022/10/26 10:54:30;;;;;;;9.40;2.00;;;19.60;99.90;;;;;;4997609;28;20038;-58
2022/10/26 10:57:28;;;;;;;8.45;1.98;;;19.80;99.90;;;;;;5003895;28;20034;-55
2022/10/26 11:00:03;;;;;;;16.48;2.22;;;19.90;99.90;;;;;;4994437;28;20037;-56
2022/10/26 11:02:43;;;;;;;8.38;2.08;;;20.00;99.90;;;;;;4999499;28;20046;-57
2022/10/26 11:05:23;;;;;;;10.32;1.90;;;20.20;99.90;;;;;;4999787;28;20488;-58
2022/10/26 11:08:06;;;;;;;6.55;1.33;;;20.30;99.90;;;;;;4996844;28;20039;-57
2022/10/26 11:10:49;;;;;;;9.75;1.60;;;20.40;99.90;;;;;;5001510;28;20407;-57
2022/10/26 11:13:26;;;;;;;3.47;1.10;;;20.60;99.90;;;;;;5000214;28;20059;-54
2022/10/26 11:16:00;;;;;;;5.53;0.90;;;20.80;99.90;;;;;;4995287;28;20130;-59
2022/10/26 11:18:29;;;;;;;;;;;20.80;99.90;;;;;;4998562;28;20093;-57
2022/10/26 11:21:17;;;;;;;6.40;0.85;;;20.90;99.90;;;;;;4998475;28;19937;-55
2022/10/26 11:23:53;;;;;;;3.35;0.70;;;21.00;99.90;;;;;;4994355;28;20117;-56
2022/10/26 11:26:38;;;;;;;1.40;0.75;;;21.10;99.90;;;;;;4994006;28;20057;-57
2022/10/26 11:29:22;;;;;;;1.83;0.60;;;21.20;99.90;;;;;;4998082;28;20041;-59
2022/10/26 11:32:16;;;;;;;8.35;0.82;;;21.30;99.90;;;;;;5000537;28;20018;-55
2022/10/26 11:34:50;;;;;;;2.80;0.73;;;21.50;99.90;;;;;;4993523;28;20030;-55
2022/10/26 11:37:31;;;;;;;1.67;0.60;;;21.70;99.90;;;;;;4991662;28;20030;-56
2022/10/26 11:40:21;;;;;;;1.35;0.50;;;21.90;99.90;;;;;;5024909;22;20034;-60
2022/10/26 11:43:07;;;;;;;4.32;1.00;;;22.00;99.90;;;;;;5037376;28;20025;-57
2022/10/26 11:45:43;;;;;;;0.57;0.40;;;22.10;99.90;;;;;;5033013;28;20033;-55
2022/10/26 11:48:23;;;;;;;2.92;0.70;;;22.20;99.90;;;;;;5041196;28;20082;-60
2022/10/26 11:50:56;;;;;;;1.60;0.55;;;22.00;99.90;;;;;;5024218;28;20029;-58
2022/10/26 11:53:37;;;;;;;3.42;0.57;;;22.20;99.90;;;;;;5033548;28;20037;-61
2022/10/26 11:56:10;;;;;;;3.75;0.77;;;22.40;99.90;;;;;;5031534;28;20030;-59
2022/10/26 11:58:37;;;;;;;6.30;0.80;;;22.50;99.90;;;;;;5032466;28;20056;-58
2022/10/26 12:01:08;;;;;;;3.60;0.60;;;22.40;99.90;;;;;;5030222;28;20037;-56
2022/10/26 12:03:41;;;;;;;2.20;0.60;;;22.60;99.90;;;;;;5034974;28;20059;-58
2022/10/26 12:06:07;;;;;;;12.68;1.02;;;22.50;99.90;;;;;;5033752;28;20104;-58
2022/10/26 12:08:39;;;;;;;5.00;0.57;;;22.60;99.90;;;;;;5041229;28;20288;-55
2022/10/26 12:11:27;;;;;;;4.60;0.70;;;22.60;99.90;;;;;;5038652;28;20061;-58
2022/10/26 12:14:25;;;;;;;7.20;0.85;;;22.80;99.90;;;;;;5032795;28;20100;-58
2022/10/26 12:17:15;;;;;;;3.60;0.65;;;22.80;99.90;;;;;;5040153;28;20502;-58
2022/10/26 12:20:03;;;;;;;3.60;0.70;;;22.70;99.90;;;;;;5034866;28;20398;-58
2022/10/26 12:22:33;;;;;;;4.28;0.70;;;22.60;99.90;;;;;;5037341;28;20029;-56
2022/10/26 12:25:14;;;;;;;1.15;0.60;;;22.70;99.90;;;;;;5036680;28;20487;-57
2022/10/26 12:27:39;;;;;;;5.63;0.82;;;22.70;99.90;;;;;;5033124;28;20087;-57
2022/10/26 12:30:17;;;;;;;9.18;0.93;;;22.50;99.90;;;;;;5026839;28;20043;-59
2022/10/26 12:32:42;;;;;;;7.47;0.63;;;22.50;99.90;;;;;;5041904;28;20519;-59
2022/10/26 12:35:38;;;;;;;4.60;0.80;;;22.50;99.90;;;;;;5040232;28;20040;-58
2022/10/26 12:38:26;;;;;;;2.55;0.70;;;22.50;99.90;;;;;;5032348;28;20029;-59
2022/10/26 12:41:07;;;;;;;3.88;0.82;;;22.50;99.90;;;;;;5035977;28;20029;-56
2022/10/26 12:43:38;;;;;;;1.85;0.70;;;22.40;99.90;;;;;;5031531;28;20037;-57
2022/10/26 12:46:12;;;;;;;6.60;0.60;;;22.30;99.90;;;;;;5034183;28;20502;-60
2022/10/26 12:48:39;;;;;;;1.02;0.57;;;22.10;99.90;;;;;;5038096;28;20030;-60
2022/10/26 12:51:20;;;;;;;9.55;0.70;;;22.00;99.90;;;;;;5036099;28;20041;-60
2022/10/26 12:53:53;;;;;;;0.70;0.47;;;22.10;99.90;;;;;;5035747;28;20029;-61
2022/10/26 12:56:28;;;;;;;2.08;0.50;;;22.20;99.90;;;;;;5036625;28;20075;-59
2022/10/26 12:59:08;;;;;;;5.80;0.47;;;22.20;99.90;;;;;;5042277;28;20025;-59
2022/10/26 13:01:55;;;;;;;0.68;0.40;;;22.20;99.90;;;;;;5033789;28;20484;-54
2022/10/26 13:04:48;;;;;;;4.25;0.90;;;22.30;99.90;;;;;;5033683;28;20024;-58
2022/10/26 13:07:23;;;;;;;12.50;0.93;;;22.50;99.90;;;;;;5032755;28;20017;-60